createdAt,value
2018-11-27T00:00:23.105Z,15.03
2018-11-27T00:02:53.156Z,14.77
2018-11-27T00:05:21.335Z,16.10
2018-11-27T00:07:49.514Z,15.40
2018-11-27T00:10:17.720Z,15.27
2018-11-27T00:12:45.885Z,15.20
2018-11-27T00:15:14.081Z,16.37
2018-11-27T00:17:42.256Z,16.20
2018-11-27T00:20:12.773Z,15.10
2018-11-27T00:22:41.067Z,15.40
2018-11-27T00:25:13.488Z,16.03
2018-11-27T00:27:41.670Z,14.77
2018-11-27T00:30:17.984Z,15.27
2018-11-27T00:32:46.178Z,15.77
2018-11-27T00:35:15.829Z,15.70
2018-11-27T00:37:44.009Z,15.57
2018-11-27T00:40:21.320Z,16.50
2018-11-27T00:42:49.612Z,17.13
2018-11-27T00:45:18.876Z,16.93
2018-11-27T00:47:48.013Z,15.37
2018-11-27T00:50:18.665Z,16.00
2018-11-27T00:52:47.166Z,16.63
2018-11-27T00:55:17.349Z,15.63
2018-11-27T00:57:46.856Z,17.43
2018-11-27T01:00:21.051Z,17.33
2018-11-27T01:02:49.250Z,16.63
2018-11-27T01:05:19.080Z,16.00
2018-11-27T01:07:47.446Z,16.70
2018-11-27T01:10:16.966Z,17.40
2018-11-27T01:12:45.189Z,15.33
2018-11-27T01:15:14.597Z,15.33
2018-11-27T01:17:49.089Z,16.17
2018-11-27T01:20:18.454Z,17.07
2018-11-27T01:22:46.983Z,16.27
2018-11-27T01:25:15.137Z,16.10
2018-11-27T01:27:43.320Z,16.87
2018-11-27T01:30:17.916Z,16.00
2018-11-27T01:32:47.484Z,14.60
2018-11-27T01:35:18.032Z,16.10
2018-11-27T01:37:50.734Z,16.40
2018-11-27T01:40:23.731Z,17.17
2018-11-27T01:42:53.830Z,14.93
2018-11-27T01:45:22.513Z,16.47
2018-11-27T01:47:50.962Z,15.77
2018-11-27T01:50:20.276Z,16.03
2018-11-27T01:52:48.650Z,16.17
2018-11-27T01:55:20.445Z,15.30
2018-11-27T01:58:21.829Z,17.53
2018-11-27T02:00:50.001Z,16.27
2018-11-27T02:03:18.180Z,16.83
2018-11-27T02:05:53.898Z,16.40
2018-11-27T02:08:22.216Z,15.77
2018-11-27T02:10:50.406Z,15.80
2018-11-27T02:13:21.299Z,15.90
2018-11-27T02:15:49.640Z,17.23
2018-11-27T02:18:19.259Z,16.17
2018-11-27T02:20:49.473Z,15.07
2018-11-27T02:23:19.627Z,15.00
2018-11-27T02:25:48.114Z,16.00
2018-11-27T02:28:17.950Z,17.03
2018-11-27T02:30:46.124Z,16.43
2018-11-27T02:33:14.478Z,15.83
2018-11-27T02:35:43.187Z,17.30
2018-11-27T02:38:11.377Z,17.70
2018-11-27T02:40:39.541Z,18.00
2018-11-27T02:43:07.746Z,17.83
2018-11-27T02:45:35.944Z,18.47
2018-11-27T02:48:04.296Z,18.37
2018-11-27T02:50:32.493Z,17.23
2018-11-27T02:53:00.644Z,18.80
2018-11-27T02:55:28.832Z,18.20
2018-11-27T02:57:57.205Z,19.47
2018-11-27T03:00:26.635Z,21.27
2018-11-27T03:02:54.962Z,20.40
2018-11-27T03:05:31.145Z,19.97
2018-11-27T03:07:59.297Z,20.73
2018-11-27T03:10:27.480Z,20.40
2018-11-27T03:12:55.672Z,19.10
2018-11-27T03:15:23.832Z,20.57
2018-11-27T03:17:52.010Z,22.57
2018-11-27T03:20:20.186Z,20.40
2018-11-27T03:22:48.337Z,21.07
2018-11-27T03:25:17.736Z,20.17
2018-11-27T03:27:46.721Z,19.93
2018-11-27T03:30:16.157Z,20.60
2018-11-27T03:32:45.170Z,21.07
2018-11-27T03:35:17.868Z,18.63
2018-11-27T03:37:47.348Z,19.17
2018-11-27T03:40:15.677Z,19.00
2018-11-27T03:42:43.857Z,18.33
2018-11-27T03:45:13.182Z,19.27
2018-11-27T03:47:41.345Z,19.50
2018-11-27T03:50:11.878Z,19.40
2018-11-27T03:52:40.050Z,18.70
2018-11-27T03:55:09.589Z,18.93
2018-11-27T03:57:37.863Z,19.60
2018-11-27T04:00:30.002Z,19.00
2018-11-27T04:03:08.789Z,19.23
2018-11-27T04:05:37.238Z,19.17
2018-11-27T04:08:06.860Z,19.37
2018-11-27T04:10:35.109Z,20.27
2018-11-27T04:13:03.286Z,19.27
2018-11-27T04:15:31.486Z,20.30
2018-11-27T04:17:59.863Z,19.33
2018-11-27T04:20:28.019Z,19.10
2018-11-27T04:22:56.201Z,19.90
2018-11-27T04:25:24.382Z,18.03
2018-11-27T04:27:52.539Z,18.53
2018-11-27T04:30:21.553Z,19.33
2018-11-27T04:32:50.288Z,16.13
2018-11-27T04:35:19.833Z,18.10
2018-11-27T04:37:48.208Z,15.60
2018-11-27T04:40:17.324Z,16.83
2018-11-27T04:42:45.691Z,16.63
2018-11-27T04:45:23.719Z,17.37
2018-11-27T04:47:51.887Z,16.93
2018-11-27T04:50:20.327Z,17.20
2018-11-27T04:52:48.531Z,16.30
2018-11-27T04:55:19.905Z,15.60
2018-11-27T04:57:48.064Z,16.30
2018-11-27T05:00:19.480Z,15.37
2018-11-27T05:02:47.662Z,15.40
2018-11-27T05:05:16.135Z,17.03
2018-11-27T05:07:44.321Z,17.33
2018-11-27T05:10:13.492Z,17.07
2018-11-27T05:12:42.101Z,15.07
2018-11-27T05:15:11.942Z,15.40
2018-11-27T05:17:40.249Z,15.00
2018-11-27T05:20:09.860Z,13.90
2018-11-27T05:22:38.117Z,15.07
2018-11-27T05:25:09.482Z,15.13
2018-11-27T05:27:38.329Z,13.80
2018-11-27T05:30:13.014Z,14.40
2018-11-27T05:32:41.208Z,14.13
2018-11-27T05:35:15.772Z,15.37
2018-11-27T05:37:45.213Z,14.73
2018-11-27T05:40:15.794Z,14.87
2018-11-27T05:42:44.081Z,15.10
2018-11-27T05:45:14.488Z,14.23
2018-11-27T05:47:42.694Z,15.73
2018-11-27T05:50:14.939Z,14.90
2018-11-27T05:52:43.128Z,14.50
2018-11-27T05:55:12.135Z,15.77
2018-11-27T05:57:41.031Z,15.23
2018-11-27T06:00:14.401Z,16.23
2018-11-27T06:02:42.593Z,16.70
2018-11-27T06:05:15.300Z,16.10
2018-11-27T06:07:43.541Z,14.30
2018-11-27T06:10:15.788Z,15.83
2018-11-27T06:12:44.029Z,16.13
2018-11-27T06:15:22.713Z,14.93
2018-11-27T06:17:56.166Z,15.47
2018-11-27T06:20:24.592Z,13.47
2018-11-27T06:22:59.694Z,13.77
2018-11-27T06:25:28.890Z,13.77
2018-11-27T06:28:02.141Z,14.97
2018-11-27T06:30:31.195Z,14.60
2018-11-27T06:32:59.473Z,14.40
2018-11-27T06:35:34.564Z,14.77
2018-11-27T06:38:04.008Z,14.97
2018-11-27T06:40:32.584Z,15.13
2018-11-27T06:43:00.745Z,16.20
2018-11-27T06:45:28.953Z,15.83
2018-11-27T06:47:57.125Z,15.93
2018-11-27T06:50:25.280Z,15.13
2018-11-27T06:52:53.478Z,16.10
2018-11-27T06:55:22.733Z,17.37
2018-11-27T06:57:51.088Z,17.13
2018-11-27T07:00:20.877Z,17.17
2018-11-27T07:02:49.885Z,17.90
2018-11-27T07:05:18.064Z,17.07
2018-11-27T07:07:46.223Z,17.23
2018-11-27T07:10:24.751Z,17.27
2018-11-27T07:12:55.617Z,18.33
2018-11-27T07:15:24.289Z,18.40
2018-11-27T07:17:52.443Z,18.90
2018-11-27T07:20:20.610Z,18.33
2018-11-27T07:22:48.804Z,18.67
2018-11-27T07:25:17.977Z,17.90
2018-11-27T07:27:47.705Z,18.23
2018-11-27T07:30:16.961Z,18.37
2018-11-27T07:32:45.355Z,16.80
2018-11-27T07:35:15.470Z,18.77
2018-11-27T07:37:43.658Z,18.07
2018-11-27T07:40:16.852Z,17.67
2018-11-27T07:42:45.225Z,17.93
2018-11-27T07:45:17.498Z,17.80
2018-11-27T07:47:45.720Z,17.87
2018-11-27T07:50:14.633Z,16.03
2018-11-27T07:52:42.850Z,17.43
2018-11-27T07:55:13.140Z,18.33
2018-11-27T07:57:41.310Z,17.80
2018-11-27T08:00:13.585Z,17.23
2018-11-27T08:02:42.365Z,16.90
2018-11-27T08:05:12.792Z,18.10
2018-11-27T08:07:41.959Z,17.97
2018-11-27T08:10:15.464Z,17.37
2018-11-27T08:12:43.624Z,16.50
2018-11-27T08:15:12.950Z,16.47
2018-11-27T08:17:41.613Z,14.67
2018-11-27T08:20:11.653Z,16.73
2018-11-27T08:22:39.828Z,15.77
2018-11-27T08:25:09.636Z,16.67
2018-11-27T08:27:38.129Z,16.33
2018-11-27T08:30:10.481Z,16.70
2018-11-27T08:32:38.640Z,15.70
2018-11-27T08:35:08.343Z,15.00
2018-11-27T08:37:36.541Z,14.70
2018-11-27T08:40:06.630Z,14.93
2018-11-27T08:42:34.821Z,14.27
2018-11-27T08:45:03.005Z,13.60
2018-11-27T08:47:31.176Z,12.93
2018-11-27T08:50:00.149Z,14.37
2018-11-27T08:52:28.337Z,13.43
2018-11-27T08:54:57.730Z,13.13
2018-11-27T08:57:25.923Z,13.00
2018-11-27T08:59:54.104Z,13.20
2018-11-27T09:02:22.376Z,12.63
2018-11-27T09:04:50.870Z,12.10
2018-11-27T09:07:19.017Z,12.33
2018-11-27T09:09:47.193Z,12.20
2018-11-27T09:12:15.356Z,11.87
2018-11-27T09:14:43.891Z,13.13
2018-11-27T09:17:12.056Z,11.30
2018-11-27T09:19:40.242Z,11.93
2018-11-27T09:22:12.782Z,13.17
2018-11-27T09:24:36.623Z,31.80
2018-11-27T09:27:04.984Z,18.60
2018-11-27T09:29:33.177Z,13.30
2018-11-27T09:32:02.573Z,12.00
2018-11-27T09:34:30.806Z,11.77
2018-11-27T09:37:04.489Z,12.77
2018-11-27T09:39:32.640Z,11.20
2018-11-27T09:42:00.840Z,12.43
2018-11-27T09:44:29.037Z,12.83
2018-11-27T09:46:57.227Z,13.23
2018-11-27T09:49:25.422Z,12.70
2018-11-27T09:51:53.595Z,12.27
2018-11-27T09:54:21.783Z,10.70
2018-11-27T09:56:49.980Z,11.37
2018-11-27T09:59:18.553Z,10.67
2018-11-27T10:01:47.632Z,10.90
2018-11-27T10:04:15.800Z,10.40
2018-11-27T10:06:44.000Z,10.17
2018-11-27T10:09:12.189Z,9.97
2018-11-27T10:11:40.353Z,10.30
2018-11-27T10:14:08.542Z,9.27
2018-11-27T10:16:36.730Z,10.47
2018-11-27T10:19:04.975Z,9.63
2018-11-27T10:21:33.165Z,11.03
2018-11-27T10:24:01.344Z,10.47
2018-11-27T10:26:29.701Z,9.27
2018-11-27T10:28:57.952Z,10.03
2018-11-27T10:31:26.442Z,10.07
2018-11-27T10:33:54.616Z,9.77
2018-11-27T10:36:23.781Z,13.60
2018-11-27T10:38:52.300Z,12.03
2018-11-27T10:41:20.448Z,17.13
2018-11-27T10:43:48.633Z,11.70
2018-11-27T10:46:16.867Z,16.53
2018-11-27T10:48:44.998Z,11.77
2018-11-27T10:51:13.168Z,11.97
2018-11-27T10:53:41.367Z,11.70
2018-11-27T10:56:09.527Z,11.10
2018-11-27T10:58:37.685Z,11.97
2018-11-27T11:01:13.144Z,12.93
2018-11-27T11:03:41.991Z,11.53
2018-11-27T11:06:10.724Z,10.80
2018-11-27T11:08:38.906Z,11.43
2018-11-27T11:11:07.977Z,11.77
2018-11-27T11:13:36.489Z,12.53
2018-11-27T11:16:04.925Z,11.63
2018-11-27T11:18:33.120Z,10.73
2018-11-27T11:21:01.281Z,10.40
2018-11-27T11:23:29.465Z,11.27
2018-11-27T11:25:57.609Z,11.17
2018-11-27T11:28:27.580Z,12.13
2018-11-27T11:30:55.847Z,10.73
2018-11-27T11:33:25.025Z,11.53
2018-11-27T11:35:53.179Z,11.30
2018-11-27T11:38:21.587Z,11.73
2018-11-27T11:40:49.746Z,12.77
2018-11-27T11:43:18.118Z,12.63
2018-11-27T11:45:46.307Z,12.80
2018-11-27T11:48:14.603Z,12.30
2018-11-27T11:50:42.777Z,12.97
2018-11-27T11:53:12.696Z,12.73
2018-11-27T11:55:40.888Z,13.40
2018-11-27T11:58:09.225Z,14.07
2018-11-27T12:00:41.290Z,13.70
2018-11-27T12:03:09.497Z,13.90
2018-11-27T12:05:39.210Z,14.17
2018-11-27T12:08:08.412Z,14.80
2018-11-27T12:10:37.910Z,14.97
2018-11-27T12:13:07.656Z,14.20
2018-11-27T12:15:35.845Z,14.40
2018-11-27T12:18:04.301Z,14.03
2018-11-27T12:20:33.017Z,12.70
2018-11-27T12:23:01.235Z,13.57
2018-11-27T12:25:29.403Z,14.40
2018-11-27T12:27:57.557Z,14.23
2018-11-27T12:30:26.714Z,13.47
2018-11-27T12:32:55.041Z,14.70
2018-11-27T12:35:23.871Z,14.10
2018-11-27T12:37:52.328Z,14.17
2018-11-27T12:40:25.420Z,13.80
2018-11-27T12:42:54.022Z,14.47
2018-11-27T12:45:28.848Z,14.07
2018-11-27T12:47:58.083Z,13.33
2018-11-27T12:50:32.052Z,14.73
2018-11-27T12:53:00.788Z,14.07
2018-11-27T12:55:28.600Z,14.67
2018-11-27T12:57:56.780Z,14.33
2018-11-27T13:00:26.413Z,14.53
2018-11-27T13:02:54.573Z,14.03
2018-11-27T13:05:25.319Z,15.63
2018-11-27T13:07:55.347Z,15.30
2018-11-27T13:10:23.547Z,14.00
2018-11-27T13:12:51.702Z,14.13
2018-11-27T13:15:20.675Z,14.67
2018-11-27T13:17:50.081Z,13.33
2018-11-27T13:20:19.006Z,14.70
2018-11-27T13:22:47.605Z,14.03
2018-11-27T13:25:20.125Z,15.27
2018-11-27T13:27:50.905Z,14.13
2018-11-27T13:30:21.479Z,14.20
2018-11-27T13:32:51.728Z,14.27
2018-11-27T13:35:19.888Z,14.50
2018-11-27T13:37:51.842Z,14.40
2018-11-27T13:40:20.017Z,13.67
2018-11-27T13:42:48.199Z,16.63
2018-11-27T13:45:16.706Z,12.87
2018-11-27T13:47:44.962Z,13.97
2018-11-27T13:50:15.085Z,14.03
2018-11-27T13:52:43.336Z,16.43
2018-11-27T13:55:26.503Z,14.90
2018-11-27T13:57:54.659Z,13.83
2018-11-27T14:00:22.815Z,13.60
2018-11-27T14:02:53.563Z,13.80
2018-11-27T14:05:23.154Z,14.87
2018-11-27T14:07:51.319Z,14.13
2018-11-27T14:10:19.531Z,14.27
2018-11-27T14:12:47.719Z,14.97
2018-11-27T14:15:17.863Z,14.60
2018-11-27T14:17:46.053Z,15.50
2018-11-27T14:20:14.367Z,14.30
2018-11-27T14:22:43.839Z,14.27
2018-11-27T14:25:12.644Z,14.83
2018-11-27T14:27:40.814Z,14.97
2018-11-27T14:30:15.040Z,14.03
2018-11-27T14:32:43.469Z,14.23
2018-11-27T14:35:12.255Z,14.47
2018-11-27T14:37:40.455Z,14.40
2018-11-27T14:40:13.520Z,14.50
2018-11-27T14:42:41.705Z,15.43
2018-11-27T14:45:12.137Z,15.03
2018-11-27T14:47:40.309Z,15.43
2018-11-27T14:50:10.312Z,15.80
2018-11-27T14:52:38.516Z,15.63
2018-11-27T14:55:09.608Z,14.53
2018-11-27T14:57:37.806Z,14.53
2018-11-27T15:00:13.978Z,15.03
2018-11-27T15:02:42.167Z,15.27
2018-11-27T15:05:13.073Z,14.20
2018-11-27T15:07:41.333Z,16.40
2018-11-27T15:10:10.938Z,15.67
2018-11-27T15:12:39.555Z,14.97
2018-11-27T15:15:10.349Z,16.60
2018-11-27T15:17:38.573Z,14.57
2018-11-27T15:20:13.096Z,13.70
2018-11-27T15:22:41.327Z,23.20
2018-11-27T15:25:09.540Z,21.43
2018-11-27T15:27:39.658Z,15.87
2018-11-27T15:30:16.793Z,16.40
2018-11-27T15:32:45.184Z,16.77
2018-11-27T15:35:13.891Z,19.43
2018-11-27T15:37:42.091Z,19.23
2018-11-27T15:40:13.906Z,18.87
2018-11-27T15:42:42.461Z,16.80
2018-11-27T15:45:16.672Z,16.13
2018-11-27T15:47:45.081Z,16.00
2018-11-27T15:50:13.274Z,15.80
2018-11-27T15:52:41.505Z,15.90
2018-11-27T15:55:20.592Z,16.93
2018-11-27T15:57:50.355Z,15.80
2018-11-27T16:00:19.553Z,17.23
2018-11-27T16:02:47.761Z,16.20
2018-11-27T16:05:17.064Z,17.00
2018-11-27T16:07:45.276Z,17.10
2018-11-27T16:10:16.681Z,15.30
2018-11-27T16:12:44.871Z,15.73
2018-11-27T16:15:15.072Z,16.00
2018-11-27T16:17:43.516Z,15.70
2018-11-27T16:20:15.031Z,15.40
2018-11-27T16:22:43.746Z,15.87
2018-11-27T16:25:13.016Z,23.20
2018-11-27T16:27:41.895Z,24.60
2018-11-27T16:30:15.212Z,22.27
2018-11-27T16:32:43.391Z,19.53
2018-11-27T16:35:12.709Z,16.83
2018-11-27T16:37:41.461Z,17.23
2018-11-27T16:40:13.014Z,19.30
2018-11-27T16:42:42.110Z,19.63
2018-11-27T16:45:12.761Z,16.40
2018-11-27T16:47:40.957Z,15.97
2018-11-27T16:50:10.734Z,17.23
2018-11-27T16:52:38.988Z,21.43
2018-11-27T16:55:14.605Z,20.17
2018-11-27T16:57:42.780Z,17.37
2018-11-27T17:00:28.602Z,21.43
2018-11-27T17:02:58.910Z,20.33
2018-11-27T17:05:28.997Z,20.70
2018-11-27T17:07:58.025Z,21.30
2018-11-27T17:10:26.252Z,19.03
2018-11-27T17:12:56.002Z,16.37
2018-11-27T17:15:25.472Z,16.90
2018-11-27T17:17:53.842Z,16.03
2018-11-27T17:20:33.423Z,16.33
2018-11-27T17:23:05.322Z,18.10
2018-11-27T17:25:33.555Z,17.97
2018-11-27T17:28:23.068Z,17.37
2018-11-27T17:31:11.049Z,17.07
2018-11-27T17:33:45.117Z,15.83
2018-11-27T17:36:13.280Z,16.53
2018-11-27T17:38:44.713Z,16.47
2018-11-27T17:41:18.283Z,15.43
2018-11-27T17:43:47.459Z,14.93
2018-11-27T17:46:15.624Z,14.17
2018-11-27T17:48:43.840Z,16.43
2018-11-27T17:51:12.025Z,15.43
2018-11-27T17:53:40.184Z,14.17
2018-11-27T17:56:08.707Z,15.40
2018-11-27T17:58:36.860Z,14.73
2018-11-27T18:09:59.149Z,15.13
2018-11-27T18:12:27.325Z,15.97
2018-11-27T18:14:56.326Z,16.40
2018-11-27T18:17:24.521Z,16.77
2018-11-27T18:19:52.684Z,19.50
2018-11-27T18:22:21.075Z,21.20
2018-11-27T18:24:49.256Z,19.37
2018-11-27T18:27:17.420Z,20.07
2018-11-27T18:29:45.652Z,19.20
2018-11-27T18:32:34.065Z,16.47
2018-11-27T18:35:02.248Z,16.90
2018-11-27T18:40:27.620Z,18.77
2018-11-27T18:42:55.777Z,18.80
2018-11-27T18:45:31.341Z,19.10
2018-11-27T18:47:59.684Z,17.67
2018-11-27T18:50:29.281Z,18.73
2018-11-27T18:52:57.451Z,20.40
2018-11-27T18:55:25.625Z,24.40
2018-11-27T18:57:53.814Z,22.53
2018-11-27T19:00:28.836Z,18.43
2018-11-27T19:02:57.072Z,19.13
2018-11-27T19:05:25.251Z,18.10
2018-11-27T19:07:53.412Z,17.43
2018-11-27T19:10:25.089Z,16.90
2018-11-27T19:12:53.537Z,16.13
2018-11-27T19:15:23.139Z,13.67
2018-11-27T19:17:53.673Z,14.90
2018-11-27T19:20:21.858Z,15.83
2018-11-27T19:22:50.054Z,16.63
2018-11-27T19:25:18.215Z,14.07
2018-11-27T19:27:46.425Z,15.37
2018-11-27T19:30:16.406Z,15.70
2018-11-27T19:32:44.304Z,14.17
2018-11-27T19:35:15.001Z,14.73
2018-11-27T19:37:43.593Z,14.57
2018-11-27T19:40:13.284Z,16.20
2018-11-27T19:42:41.766Z,17.07
2018-11-27T19:45:26.583Z,16.70
2018-11-27T19:47:55.948Z,16.60
2018-11-27T19:50:24.114Z,22.13
2018-11-27T19:52:54.656Z,21.80
2018-11-27T19:55:22.868Z,19.97
2018-11-27T19:57:51.092Z,19.37
2018-11-27T20:00:20.581Z,17.73
2018-11-27T20:02:48.861Z,16.73
2018-11-27T20:05:19.060Z,17.43
2018-11-27T20:07:47.548Z,17.23
2018-11-27T20:10:16.176Z,16.90
2018-11-27T20:12:44.571Z,18.43
2018-11-27T20:15:19.908Z,18.73
2018-11-27T20:17:48.849Z,19.60
2018-11-27T20:20:19.157Z,21.17
2018-11-27T20:22:47.337Z,20.80
2018-11-27T20:25:17.177Z,20.00
2018-11-27T20:27:45.397Z,20.07
2018-11-27T20:30:15.876Z,19.63
2018-11-27T20:32:45.745Z,19.10
2018-11-27T20:35:14.853Z,19.40
2018-11-27T20:37:43.624Z,17.87
2018-11-27T20:40:13.143Z,20.23
2018-11-27T20:42:41.332Z,18.77
2018-11-27T20:45:19.355Z,21.83
2018-11-27T20:47:44.193Z,21.93
2018-11-27T20:50:16.595Z,23.07
2018-11-27T20:52:44.861Z,20.93
2018-11-27T20:55:13.039Z,20.70
2018-11-27T20:57:43.286Z,21.40
2018-11-27T21:00:17.486Z,21.30
2018-11-27T21:02:46.770Z,18.33
2018-11-27T21:05:15.031Z,18.00
2018-11-27T21:07:43.379Z,18.97
2018-11-27T21:10:12.700Z,19.67
2018-11-27T21:12:42.540Z,21.47
2018-11-27T21:15:12.121Z,19.20
2018-11-27T21:17:40.297Z,19.43
2018-11-27T21:20:09.994Z,19.57
2018-11-27T21:22:38.310Z,19.83
2018-11-27T21:25:09.132Z,18.73
2018-11-27T21:27:37.325Z,17.13
2018-11-27T21:30:13.316Z,19.53
2018-11-27T21:32:41.533Z,18.90
2018-11-27T21:35:11.805Z,17.20
2018-11-27T21:37:40.221Z,20.67
2018-11-27T21:40:24.758Z,18.20
2018-11-27T21:42:52.944Z,18.60
2018-11-27T21:45:22.304Z,16.20
2018-11-27T21:47:57.159Z,17.73
2018-11-27T21:50:31.793Z,19.27
2018-11-27T21:53:00.984Z,22.93
2018-11-27T21:55:29.162Z,20.70
2018-11-27T21:57:57.348Z,20.17
2018-11-27T22:00:26.340Z,18.30
2018-11-27T22:02:54.894Z,16.83
2018-11-27T22:05:24.169Z,17.27
2018-11-27T22:07:52.510Z,18.97
2018-11-27T22:10:22.525Z,20.20
2018-11-27T22:12:53.140Z,21.97
2018-11-27T22:15:31.815Z,19.10
2018-11-27T22:18:00.790Z,21.80
2018-11-27T22:20:29.502Z,26.37
2018-11-27T22:22:57.813Z,23.20
2018-11-27T22:25:27.378Z,17.70
2018-11-27T22:27:55.789Z,19.80
2018-11-27T22:30:24.608Z,18.13
2018-11-27T22:32:53.869Z,18.63
2018-11-27T22:35:22.324Z,17.00
2018-11-27T22:37:50.561Z,17.93
2018-11-27T22:40:23.204Z,17.63
2018-11-27T22:42:52.421Z,16.33
2018-11-27T22:45:22.897Z,17.87
2018-11-27T22:47:51.091Z,18.43
2018-11-27T22:50:19.662Z,17.20
2018-11-27T22:52:47.855Z,19.90
2018-11-27T22:55:16.069Z,17.60
2018-11-27T22:57:44.300Z,16.77
2018-11-27T23:00:20.666Z,19.43
2018-11-27T23:02:49.667Z,20.10
2018-11-27T23:05:19.103Z,19.20
2018-11-27T23:07:47.292Z,20.43
2018-11-27T23:10:15.793Z,20.53
2018-11-27T23:12:44.229Z,17.87
2018-11-27T23:15:13.655Z,17.27
2018-11-27T23:17:42.472Z,17.97
2018-11-27T23:20:14.913Z,18.40
2018-11-27T23:22:43.109Z,17.40
2018-11-27T23:25:15.620Z,18.80
2018-11-27T23:27:43.949Z,17.13
2018-11-27T23:30:23.962Z,16.93
2018-11-27T23:32:52.172Z,17.47
2018-11-27T23:35:20.383Z,16.10
2018-11-27T23:37:48.579Z,17.20
2018-11-27T23:40:17.920Z,19.47
2018-11-27T23:42:46.689Z,16.67
2018-11-27T23:45:16.030Z,16.73
2018-11-27T23:47:44.260Z,17.07
2018-11-27T23:50:15.827Z,16.97
2018-11-27T23:52:44.221Z,16.70
2018-11-27T23:55:13.620Z,16.20
2018-11-27T23:57:42.181Z,18.70
